Peotone Weather

Nearby METAR Reports

 

KIGQ - Lansing, Illinois, USA
Distance from station: NE 19mi, 30km
Updated: Sat, 16-Feb-2019 6:25pm CST
unable to load KIGQ data RC=
unable to load KIGQ data RC=
 
KIKK - Kankakee, Illinois, USA
Distance from station: S 19mi, 30km
Updated: Sat, 16-Feb-2019 6:15pm CST
Overcast
Overcast
 Wind from calm
Wind: Calm
Temperature: 28°F , -2°C
Dew Point: 19°F , -7°C
Humidity: 69%
Barometer: 30.04 inHg , 1017.3 hPa
Clouds: Overcast
Visibility: 10 miles , 16 km
Cloud details: Overcast 2300 ft
2019/02/17 00:15 KIKK 170015Z AUTO 00000KT 10SM OVC023 M02/M07 A3004 RMK AO2 T10201069
 
KSJC - Joliet, Illinois, USA
Distance from station: WNW 24mi, 38km
Updated: Sat, 16-Feb-2019 5:53pm CST
Mostly cloudy
Mostly cloudy
 Wind from NW
Wind: NW 14 mph , 22 km/h, Gust: 22 mph , 35 km/h
Temperature: 52°F , 11°C
Dew Point: 41°F , 5°C
Humidity: 67%
Barometer: 30.15 inHg , 1021 hPa
Clouds: Mostly cloudy
Visibility: 10 miles , 16 km
Cloud details: Few Clouds 1500 ft
Partly cloudy 2600 ft
Mostly cloudy 3300 ft
2019/02/16 23:53 KSJC 162353Z 32012G19KT 10SM FEW015 SCT026 BKN033TCU 11/05 A3015 RMK AO2 SLP207 TCU SE-S TCU DSNT NE-E 60004 T01060050 10117 20089 56010
KLOT - Romeoville, Illinois, USA
Distance from station: NW 26mi, 41km
Updated: Sat, 16-Feb-2019 6:15pm CST
Overcast
Overcast
 Wind from ENE
Wind: ENE 15 mph , 24 km/h
Temperature: 27°F , -3°C
Wind Chill: 15°F , -9°C
Dew Point: 21°F , -6°C
Humidity: 80%
Barometer: 30.05 inHg , 1017.6 hPa
Clouds: Overcast
Visibility: 10 miles , 16 km
Cloud details: Overcast 1900 ft
2019/02/17 00:15 KLOT 170015Z AUTO 06013KT 10SM OVC019 M03/M06 A3005 RMK AO2 T10311065
 
KMDW - Midway Airport Chicago, Illinois, USA
Distance from station: N 31mi, 50km
Updated: Sat, 16-Feb-2019 5:53pm CST
Overcast
Overcast
 Wind from E
Wind: E 15 mph , 24 km/h
Temperature: 27°F , -3°C
Wind Chill: 15°F , -9°C
Dew Point: 18°F , -8°C
Humidity: 69%
Barometer: 30.06 inHg , 1017.9 hPa
Clouds: Overcast
Visibility: 10 miles , 16 km
Cloud details: Overcast 1900 ft
2019/02/16 23:53 KMDW 162353Z 09013KT 10SM OVC019 M03/M08 A3006 RMK AO2 SLP195 T10331078 11011 21033 55001 $
KC09 - Morris, Illinois, USA
Distance from station: W 34mi, 54km
Updated: Sat, 16-Feb-2019 6:15pm CST
Overcast
Overcast
 Wind from E
Wind: E 10 mph , 17 km/h
Temperature: 28°F , -2°C
Wind Chill: 19°F , -7°C
Dew Point: 21°F , -6°C
Humidity: 74%
Barometer: 30.04 inHg , 1017.3 hPa
Clouds: Overcast
Visibility: 10 miles , 16 km
Cloud details: Overcast 2200 ft
2019/02/17 00:15 KC09 170015Z AUTO 08009KT 10SM OVC022 M02/M06 A3004 RMK AO2 T10211059

Metar display script from Saratoga-Weather.org